Terminal Aerodrome Forecast
Issued by NWS

Home | Current Version | Previous Version | Text Only | Print | Product List | Glossary On
Versions: 1 2 3 4 5 6 7 8 9 10 11 12 13 14 15 16 17 18 19 20 21 22 23 24 25 26
000
FTUS43 KDLH 200531
TAFHIB
TAF
KHIB 200531Z 2006/2106 03009KT 6SM -SN BKN025 OVC045
      TEMPO 2008/2010 3SM -SN BKN020 OVC040
     FM201000 03009KT 1SM -SN OVC025
     FM201700 34007KT 5SM -SN BKN018 OVC045
     FM202000 31008KT P6SM -SN BKN020
     FM210000 31008KT P6SM BKN040=

USA.gov is the U.S. government's official web portal to all federal, state and local government web resources and services.